Time,TemperatureF,DewpointF,PressureIn,WindDirection,WindDirectionDegrees,WindSpeedMPH,WindSpeedGustMPH,Humidity,HourlyPrecipIn,Conditions,Clouds,dailyrainin,SolarRadiationWatts/m^2,SoftwareType,DateUTC
2013-01-28 00:01:00,29.0,21.0,-100.00,SW,219,4.0,8.0,72,0.00,,,0.00,0.000000,,2013-01-28 05:01:00,
2013-01-28 00:32:00,29.0,21.0,-100.00,SW,219,4.0,8.0,72,0.00,,,0.00,0.000000,,2013-01-28 05:32:00,
2013-01-28 00:42:00,29.0,21.0,-100.00,SW,219,4.0,8.0,72,0.00,,,0.00,0.000000,,2013-01-28 05:42:00,
2013-01-28 00:52:00,29.0,21.0,-100.00,SW,219,4.0,8.0,72,0.00,,,0.00,0.000000,,2013-01-28 05:52:00,
2013-01-28 01:01:00,29.0,21.0,-100.00,SSW,209,2.0,8.0,72,0.00,,,0.00,0.000000,,2013-01-28 06:01:00,
2013-01-28 01:32:00,29.0,21.0,-100.00,SSW,209,2.0,8.0,72,0.00,,,0.00,0.000000,,2013-01-28 06:32:00,
2013-01-28 01:42:00,29.0,21.0,-100.00,SSW,209,2.0,8.0,72,0.00,,,0.00,0.000000,,2013-01-28 06:42:00,
2013-01-28 01:52:00,29.0,21.0,-100.00,SSW,209,2.0,8.0,72,0.00,,,0.00,0.000000,,2013-01-28 06:52:00,
2013-01-28 02:01:00,29.0,22.0,-100.00,SSW,208,1.0,5.0,76,0.00,,,0.00,0.000000,,2013-01-28 07:01:00,
2013-01-28 02:22:00,29.0,22.0,-100.00,SSW,208,1.0,5.0,76,0.00,,,0.00,0.000000,,2013-01-28 07:22:00,
2013-01-28 02:32:00,29.0,22.0,-100.00,SSW,208,1.0,5.0,76,0.00,,,0.00,0.000000,,2013-01-28 07:32:00,
2013-01-28 02:42:00,29.0,22.0,-100.00,SSW,208,1.0,5.0,76,0.00,,,0.00,0.000000,,2013-01-28 07:42:00,
2013-01-28 02:52:00,29.0,22.0,-100.00,SSW,208,1.0,5.0,76,0.00,,,0.00,0.000000,,2013-01-28 07:52:00,
2013-01-28 03:01:00,29.0,25.0,-100.00,SW,217,3.0,7.0,85,0.00,,,0.00,0.000000,,2013-01-28 08:01:00,
2013-01-28 03:32:00,29.0,25.0,-100.00,SW,217,3.0,7.0,85,0.00,,,0.00,0.000000,,2013-01-28 08:32:00,
2013-01-28 03:42:00,29.0,25.0,-100.00,SW,217,3.0,7.0,85,0.00,,,0.00,0.000000,,2013-01-28 08:42:00,
2013-01-28 03:52:00,29.0,25.0,-100.00,SW,217,3.0,7.0,85,0.00,,,0.00,0.000000,,2013-01-28 08:52:00,
2013-01-28 04:01:00,29.0,26.0,-100.00,SSW,208,3.0,8.0,90,0.02,,,0.02,0.000000,,2013-01-28 09:01:00,
2013-01-28 04:32:00,29.0,26.0,-100.00,SSW,208,3.0,8.0,90,0.02,,,0.02,0.000000,,2013-01-28 09:32:00,
2013-01-28 04:42:00,29.0,26.0,-100.00,SSW,208,3.0,8.0,90,0.02,,,0.02,0.000000,,2013-01-28 09:42:00,
2013-01-28 04:52:00,29.0,26.0,-100.00,SSW,208,3.0,8.0,90,0.02,,,0.02,0.000000,,2013-01-28 09:52:00,
2013-01-28 05:01:00,30.0,28.0,-100.00,SSW,205,3.0,8.0,92,0.03,,,0.05,0.000000,,2013-01-28 10:01:00,
2013-01-28 05:32:00,30.0,28.0,-100.00,SSW,205,3.0,8.0,92,0.03,,,0.05,0.000000,,2013-01-28 10:32:00,
2013-01-28 05:42:00,30.0,28.0,-100.00,SSW,205,3.0,8.0,92,0.03,,,0.05,0.000000,,2013-01-28 10:42:00,
2013-01-28 05:52:00,30.0,28.0,-100.00,SSW,205,3.0,8.0,92,0.03,,,0.05,0.000000,,2013-01-28 10:52:00,
2013-01-28 06:01:00,30.0,28.0,-100.00,SSW,206,1.0,5.0,93,0.01,,,0.06,0.000000,,2013-01-28 11:01:00,
2013-01-28 06:32:00,30.0,28.0,-100.00,SSW,206,1.0,5.0,93,0.01,,,0.06,0.000000,,2013-01-28 11:32:00,
2013-01-28 06:42:00,30.0,28.0,-100.00,SSW,206,1.0,5.0,93,0.01,,,0.06,0.000000,,2013-01-28 11:42:00,
2013-01-28 06:52:00,30.0,28.0,-100.00,SSW,206,1.0,5.0,93,0.01,,,0.06,0.000000,,2013-01-28 11:52:00,
2013-01-28 07:01:00,30.0,28.0,-100.00,SSW,208,2.0,4.0,93,0.00,,,0.06,0.000000,,2013-01-28 12:01:00,
2013-01-28 07:23:00,30.0,28.0,-100.00,SSW,208,2.0,4.0,93,0.00,,,0.06,0.000000,,2013-01-28 12:23:00,
2013-01-28 07:33:00,30.0,28.0,-100.00,SSW,208,2.0,4.0,93,0.00,,,0.06,0.000000,,2013-01-28 12:33:00,
2013-01-28 07:42:00,30.0,28.0,-100.00,SSW,208,2.0,4.0,93,0.00,,,0.06,0.000000,,2013-01-28 12:42:00,
2013-01-28 07:53:00,30.0,28.0,-100.00,SSW,208,2.0,4.0,93,0.00,,,0.06,0.000000,,2013-01-28 12:53:00,
2013-01-28 08:01:00,29.0,27.0,-100.00,SSW,212,3.0,6.0,93,0.00,,,0.06,0.000000,,2013-01-28 13:01:00,
2013-01-28 08:23:00,29.0,27.0,-100.00,SSW,212,3.0,6.0,93,0.00,,,0.06,0.000000,,2013-01-28 13:23:00,
2013-01-28 08:33:00,29.0,27.0,-100.00,SSW,212,3.0,6.0,93,0.00,,,0.06,0.000000,,2013-01-28 13:33:00,
2013-01-28 08:43:00,29.0,27.0,-100.00,SSW,212,3.0,6.0,93,0.00,,,0.06,0.000000,,2013-01-28 13:43:00,
2013-01-28 08:53:00,29.0,27.0,-100.00,SSW,212,3.0,6.0,93,0.00,,,0.06,0.000000,,2013-01-28 13:53:00,
2013-01-28 09:01:00,30.0,28.0,-100.00,SW,217,3.0,7.0,93,0.00,,,0.06,0.000000,,2013-01-28 14:01:00,
2013-01-28 09:33:00,30.0,28.0,-100.00,SW,217,3.0,7.0,93,0.00,,,0.06,0.000000,,2013-01-28 14:33:00,
2013-01-28 09:43:00,30.0,28.0,-100.00,SW,217,3.0,7.0,93,0.00,,,0.06,0.000000,,2013-01-28 14:43:00,
2013-01-28 09:53:00,30.0,28.0,-100.00,SW,217,3.0,7.0,93,0.00,,,0.06,0.000000,,2013-01-28 14:53:00,
2013-01-28 10:01:00,32.0,30.0,-100.00,SW,232,1.0,5.0,94,0.00,,,0.06,0.000000,,2013-01-28 15:01:00,
2013-01-28 10:33:00,32.0,30.0,-100.00,SW,232,1.0,5.0,94,0.00,,,0.06,0.000000,,2013-01-28 15:33:00,
2013-01-28 10:43:00,32.0,30.0,-100.00,SW,232,1.0,5.0,94,0.00,,,0.06,0.000000,,2013-01-28 15:43:00,
2013-01-28 10:53:00,32.0,30.0,-100.00,SW,232,1.0,5.0,94,0.00,,,0.06,0.000000,,2013-01-28 15:53:00,
2013-01-28 11:01:00,32.0,30.0,-100.00,SW,217,3.0,7.0,94,0.02,,,0.08,0.000000,,2013-01-28 16:01:00,
2013-01-28 11:33:00,32.0,30.0,-100.00,SW,217,3.0,7.0,94,0.02,,,0.08,0.000000,,2013-01-28 16:33:00,
2013-01-28 11:43:00,32.0,30.0,-100.00,SW,217,3.0,7.0,94,0.02,,,0.08,0.000000,,2013-01-28 16:43:00,
2013-01-28 11:53:00,32.0,30.0,-100.00,SW,217,3.0,7.0,94,0.02,,,0.08,0.000000,,2013-01-28 16:53:00,
2013-01-28 12:01:00,34.0,32.0,-100.00,SSW,198,2.0,5.0,94,0.11,,,0.19,0.000000,,2013-01-28 17:01:00,
2013-01-28 12:33:00,34.0,32.0,-100.00,SSW,198,2.0,5.0,94,0.11,,,0.19,0.000000,,2013-01-28 17:33:00,
2013-01-28 12:42:00,34.0,32.0,-100.00,SSW,198,2.0,5.0,94,0.11,,,0.19,0.000000,,2013-01-28 17:42:00,
2013-01-28 12:53:00,34.0,32.0,-100.00,SSW,198,2.0,5.0,94,0.11,,,0.19,0.000000,,2013-01-28 17:53:00,
2013-01-28 13:01:00,36.0,34.0,-100.00,SSW,213,2.0,4.0,93,0.00,,,0.19,0.000000,,2013-01-28 18:01:00,
2013-01-28 13:23:00,36.0,34.0,-100.00,SSW,213,2.0,4.0,93,0.00,,,0.19,0.000000,,2013-01-28 18:23:00,
2013-01-28 13:33:00,36.0,34.0,-100.00,SSW,213,2.0,4.0,93,0.00,,,0.19,0.000000,,2013-01-28 18:33:00,
2013-01-28 13:43:00,36.0,34.0,-100.00,SSW,213,2.0,4.0,93,0.00,,,0.19,0.000000,,2013-01-28 18:43:00,
2013-01-28 13:53:00,36.0,34.0,-100.00,SSW,213,2.0,4.0,93,0.00,,,0.19,0.000000,,2013-01-28 18:53:00,
2013-01-28 14:01:00,43.0,41.0,-100.00,SSW,204,2.0,5.0,93,0.00,,,0.19,0.000000,,2013-01-28 19:01:00,
2013-01-28 14:33:00,43.0,41.0,-100.00,SSW,204,2.0,5.0,93,0.00,,,0.19,0.000000,,2013-01-28 19:33:00,
2013-01-28 14:43:00,43.0,41.0,-100.00,SSW,204,2.0,5.0,93,0.00,,,0.19,0.000000,,2013-01-28 19:43:00,
2013-01-28 14:53:00,43.0,41.0,-100.00,SSW,204,2.0,5.0,93,0.00,,,0.19,0.000000,,2013-01-28 19:53:00,
2013-01-28 15:01:00,44.0,40.0,-100.00,SSW,212,2.0,7.0,85,0.00,,,0.19,0.000000,,2013-01-28 20:01:00,
2013-01-28 15:33:00,44.0,40.0,-100.00,SSW,212,2.0,7.0,85,0.00,,,0.19,0.000000,,2013-01-28 20:33:00,
2013-01-28 15:43:00,44.0,40.0,-100.00,SSW,212,2.0,7.0,85,0.00,,,0.19,0.000000,,2013-01-28 20:43:00,
2013-01-28 15:53:00,44.0,40.0,-100.00,SSW,212,2.0,7.0,85,0.00,,,0.19,0.000000,,2013-01-28 20:53:00,
2013-01-28 16:01:00,46.0,39.0,-100.00,NE,34,1.0,5.0,76,0.00,,,0.19,0.000000,,2013-01-28 21:01:00,
2013-01-28 16:34:00,46.0,39.0,-100.00,NE,34,1.0,5.0,76,0.00,,,0.19,0.000000,,2013-01-28 21:34:00,
2013-01-28 16:43:00,46.0,39.0,-100.00,NE,34,1.0,5.0,76,0.00,,,0.19,0.000000,,2013-01-28 21:43:00,
2013-01-28 16:53:00,46.0,39.0,-100.00,NE,34,1.0,5.0,76,0.00,,,0.19,0.000000,,2013-01-28 21:53:00,
2013-01-28 17:01:00,43.0,38.0,-100.00,ENE,57,2.0,7.0,83,0.00,,,0.19,0.000000,,2013-01-28 22:01:00,
2013-01-28 17:23:00,43.0,38.0,-100.00,ENE,57,2.0,7.0,83,0.00,,,0.19,0.000000,,2013-01-28 22:23:00,
2013-01-28 17:33:00,43.0,38.0,-100.00,ENE,57,2.0,7.0,83,0.00,,,0.19,0.000000,,2013-01-28 22:33:00,
2013-01-28 17:42:00,43.0,38.0,-100.00,ENE,57,2.0,7.0,83,0.00,,,0.19,0.000000,,2013-01-28 22:42:00,
2013-01-28 17:52:00,43.0,38.0,-100.00,ENE,57,2.0,7.0,83,0.00,,,0.19,0.000000,,2013-01-28 22:52:00,
2013-01-28 18:01:00,42.0,38.0,-100.00,NNE,15,1.0,4.0,87,0.00,,,0.19,0.000000,,2013-01-28 23:01:00,
2013-01-28 18:33:00,42.0,38.0,-100.00,NNE,15,1.0,4.0,87,0.00,,,0.19,0.000000,,2013-01-28 23:33:00,
2013-01-28 18:42:00,42.0,38.0,-100.00,NNE,15,1.0,4.0,87,0.00,,,0.19,0.000000,,2013-01-28 23:42:00,
2013-01-28 18:53:00,42.0,38.0,-100.00,NNE,15,1.0,4.0,87,0.00,,,0.19,0.000000,,2013-01-28 23:53:00,
2013-01-28 19:01:00,45.0,42.0,-100.00,SSW,200,5.0,17.0,90,0.00,,,0.19,0.000000,,2013-01-29 00:01:00,
2013-01-28 19:33:00,45.0,42.0,-100.00,SSW,200,5.0,17.0,90,0.00,,,0.19,0.000000,,2013-01-29 00:33:00,
2013-01-28 19:42:00,45.0,42.0,-100.00,SSW,200,5.0,17.0,90,0.00,,,0.19,0.000000,,2013-01-29 00:42:00,
2013-01-28 19:52:00,45.0,42.0,-100.00,SSW,200,5.0,17.0,90,0.00,,,0.19,0.000000,,2013-01-29 00:52:00,
2013-01-28 20:01:00,54.0,46.0,-100.00,SW,232,10.0,29.0,75,0.00,,,0.19,0.000000,,2013-01-29 01:01:00,
2013-01-28 20:32:00,54.0,46.0,-100.00,SW,232,10.0,29.0,75,0.00,,,0.19,0.000000,,2013-01-29 01:32:00,
2013-01-28 20:42:00,54.0,46.0,-100.00,SW,232,10.0,29.0,75,0.00,,,0.19,0.000000,,2013-01-29 01:42:00,
2013-01-28 20:53:00,54.0,46.0,-100.00,SW,232,10.0,29.0,75,0.00,,,0.19,0.000000,,2013-01-29 01:53:00,
2013-01-28 21:01:00,53.0,46.0,-100.00,SW,230,11.0,29.0,76,0.00,,,0.19,0.000000,,2013-01-29 02:01:00,
2013-01-28 21:33:00,53.0,46.0,-100.00,SW,230,11.0,29.0,76,0.00,,,0.19,0.000000,,2013-01-29 02:33:00,
2013-01-28 21:42:00,53.0,46.0,-100.00,SW,230,11.0,29.0,76,0.00,,,0.19,0.000000,,2013-01-29 02:42:00,
2013-01-28 21:53:00,53.0,46.0,-100.00,SW,230,11.0,29.0,76,0.00,,,0.19,0.000000,,2013-01-29 02:53:00,
2013-01-28 22:01:00,53.0,46.0,-100.00,WSW,237,8.0,24.0,77,0.00,,,0.19,0.000000,,2013-01-29 03:01:00,
2013-01-28 22:22:00,53.0,46.0,-100.00,WSW,237,8.0,24.0,77,0.00,,,0.19,0.000000,,2013-01-29 03:22:00,
2013-01-28 22:32:00,53.0,46.0,-100.00,WSW,237,8.0,24.0,77,0.00,,,0.19,0.000000,,2013-01-29 03:32:00,
2013-01-28 22:42:00,53.0,46.0,-100.00,WSW,237,8.0,24.0,77,0.00,,,0.19,0.000000,,2013-01-29 03:42:00,
2013-01-28 22:53:00,53.0,46.0,-100.00,WSW,237,8.0,24.0,77,0.00,,,0.19,0.000000,,2013-01-29 03:53:00,
2013-01-28 23:01:00,52.0,46.0,-100.00,SW,222,6.0,24.0,81,0.00,,,0.19,0.000000,,2013-01-29 04:01:00,
2013-01-28 23:32:00,52.0,46.0,-100.00,SW,222,6.0,24.0,81,0.00,,,0.19,0.000000,,2013-01-29 04:32:00,
2013-01-28 23:42:00,52.0,46.0,-100.00,SW,222,6.0,24.0,81,0.00,,,0.19,0.000000,,2013-01-29 04:42:00,
2013-01-28 23:52:00,52.0,46.0,-100.00,SW,222,6.0,24.0,81,0.00,,,0.19,0.000000,,2013-01-29 04:52:00,